Terminal Aerodrome Forecast
Issued by NWS

Home | Current Version | Previous Version | Text Only | Print | Product List | Glossary On
Versions: 1 2 3 4 5 6 7 8 9 10 11 12 13 14
672
FTUS45 KTFX 291120
TAFGTF
TAF
KGTF 291120Z 2912/3012 23010KT P6SM FEW045 SCT060 BKN090
     FM291700 24015G22KT P6SM VCSH FEW045 SCT060 BKN090
     FM300300 21009KT P6SM -SHRA SCT040 BKN060 OVC080=

USA.gov is the U.S. government's official web portal to all federal, state and local government web resources and services.